Pays
Station

 

Conditions  météo  pour  Monclova, Coah.  -  Mexique    Mexique

  
34 °C
    
 
 

METAR pour Monclova, Coah. :

MMMV 192040Z 04007KT 6SM BKN050 34/21 A2980 RMK 8/200 HZY

 

Voici le bulletin pour Monclova, Coah. - Mexique.
 
Le bulletin a été fait il y a 5 heures et 27 minutes, à 20:40 UTC .
Le vent soufflait à la vitesse de 3.6 mètres par seconde de Nord-est (040°).
 
La température était de 34 °C, avec un point de rosée à 21 °C.
La température ressentie était de 37 °C.
 
La pression atmosphérique était de 1009 hPa.
L'humidité relative était de 46.8%.
 
Il y avait 5 à 7/8ème de nébulosité à une hauteur de 1524 mètres.
 
La visibilité globale était de 9.7 kilomètres.
 

 
 
 

Pays :   A   B   C   D   E   F   G   H   I   J   K   L   M   N   O   P   Q   R   S   T   U   V   W   Y   Z

 

Partenaires :  Info Météo avec Met'info
Météo Marine avec MeteoMarine.net
Infos Site  |  Infos Légales  |  Crédits  |  Confidentialité
Contactez-nous  |  Ajouter aux favoris
© 2013-2018 METAR - Tous droits réservés